Portada
METAR-TAF:

METAR-TAF

Aeropuertos :

Jönköping, Suecia

latitud: 57-46N, longitud: 014-05E, altitud: 226 m

Observación

El informe se hizo hace 10 minutos, a las 23:50 UTC
Viento 5 kt del este
Temperatura 2°C
Humedad 100%
Presión 984 hPa
Visibilidad 10 km o más
llovizna

METAR: ESGJ 132350Z AUTO 10005KT 9999 DZ VV009 02/02 Q0984

Hora: 01:00 (00:00 UTC)

Pronóstico

El informe se hizo hace 6 horas y 30 minutos, a las 17:30 UTC
Pronóstico válido del 13 a las 18 UTC al 13 a las 21 UTC
Viento 6 kt del este
Visibilidad 10 km o más
Cielo nuboso a una altura de 800 ft
lluvia ligera
Temporalmente
del 13 a las 18 UTC al 13 a las 21 UTC
Visibilidad: 3000 m
Cielo nuboso a una altura de 400 ft
lluvia ligera

TAF: ESGJ 131730Z 1318/1321 09006KT 9999 -RA BKN008 TEMPO 1318/1321 3000 -RA BKN004

Observaciones y pronósticos meteorológicos de más de 4000 aeropuertos (mensajes METAR y TAF).

Los puntos amarillos y rojos representan las estaciones disponibles.

Ponga el ratón en el punto deseado para ver el nombre de la estación.

Haga clic para ver las observaciones y los pronósticos meteorológicos.

Para cambiar el mapa : haga clic en los botones verdes con una cruz de color negro para hacer un zoom, en el botón verde con un guión para alejar o en las flechas verdes para mapas adyacentes.


METAR-TAF: